Time;durP1;ratioP1;P1;durP2;ratioP2;P2;SDS_P1;SDS_P2;PMS_P1;PMS_P2;Temp;Humidity;BMP_temperature;BMP_pressure;BME280_temperature;BME280_humidity;BME280_pressure;Samples;Min_cycle;Max_cycle;Signal;HPM_P1;HPM_P2
2023/09/18 04:02:12;;;;;;;1.87;1.57;;;17.70;97.30;;;;;;5254137;23;20529;-94
2023/09/18 04:04:38;;;;;;;3.00;2.10;;;17.60;97.30;;;;;;4995036;28;20930;-94
2023/09/18 04:07:07;;;;;;;6.13;1.40;;;17.60;97.30;;;;;;4989026;28;20294;-93
2023/09/18 04:09:36;;;;;;;2.30;2.20;;;17.60;97.30;;;;;;4999852;28;20194;-95
2023/09/18 04:12:07;;;;;;;4.37;1.87;;;17.50;97.30;;;;;;5004264;28;21086;-94
2023/09/18 04:14:35;;;;;;;1.83;1.73;;;17.50;97.30;;;;;;4998161;28;20429;-94
2023/09/18 04:17:01;;;;;;;10.60;1.40;;;17.40;97.30;;;;;;5008103;28;20462;-94
2023/09/18 04:19:30;;;;;;;2.00;1.80;;;17.40;97.30;;;;;;5006891;28;20417;-93
2023/09/18 04:21:56;;;;;;;2.50;2.30;;;17.40;97.30;;;;;;4999998;28;20202;-92
2023/09/18 04:24:22;;;;;;;2.07;1.93;;;17.40;97.30;;;;;;5003149;28;20429;-94
2023/09/18 04:26:50;;;;;;;1.53;1.43;;;17.40;97.30;;;;;;4988209;28;20189;-94
2023/09/18 04:29:18;;;;;;;2.33;1.50;;;17.40;97.30;;;;;;4998723;28;20428;-95
2023/09/18 04:31:53;;;;;;;3.33;2.20;;;17.40;97.30;;;;;;4997156;28;20564;-95
2023/09/18 04:34:19;;;;;;;2.57;1.93;;;17.40;97.30;;;;;;4991308;28;20429;-94
2023/09/18 04:36:45;;;;;;;1.57;1.47;;;17.40;97.30;;;;;;4990929;28;20436;-94
2023/09/18 04:39:11;;;;;;;2.40;1.37;;;17.40;97.30;;;;;;4998861;28;20197;-93
2023/09/18 04:41:36;;;;;;;1.60;1.27;;;17.40;97.30;;;;;;4994143;28;20217;-93
2023/09/18 04:44:02;;;;;;;1.47;1.47;;;17.40;97.30;;;;;;4990156;28;20704;-93
2023/09/18 04:46:29;;;;;;;2.07;1.93;;;17.40;97.30;;;;;;4987465;28;20190;-93
2023/09/18 04:48:55;;;;;;;1.57;1.30;;;17.30;97.30;;;;;;4987685;28;20221;-93
2023/09/18 04:51:21;;;;;;;2.03;1.60;;;17.30;97.30;;;;;;4987128;28;20536;-93
2023/09/18 04:53:49;;;;;;;3.97;1.90;;;17.40;97.30;;;;;;4994131;28;20206;-95
2023/09/18 04:56:19;;;;;;;1.47;1.30;;;17.30;97.30;;;;;;4987291;28;20190;-92
2023/09/18 04:58:50;;;;;;;2.37;1.60;;;17.40;97.30;;;;;;4996168;28;20452;-93
2023/09/18 05:01:17;;;;;;;2.53;1.73;;;17.40;97.30;;;;;;4997344;28;20477;-94
2023/09/18 05:03:43;;;;;;;1.30;1.20;;;17.40;97.30;;;;;;4994954;28;20425;-93
2023/09/18 05:06:08;;;;;;;1.40;1.30;;;17.40;97.30;;;;;;4981177;28;20823;-92
2023/09/18 05:08:36;;;;;;;2.10;1.50;;;17.50;97.30;;;;;;4995016;28;20185;-95
2023/09/18 05:11:01;;;;;;;1.33;1.23;;;17.50;97.30;;;;;;4995409;28;20225;-94
2023/09/18 05:13:29;;;;;;;2.30;2.03;;;17.50;97.30;;;;;;4988973;28;20453;-95
2023/09/18 05:16:18;;;;;;;1.83;1.50;;;17.60;97.30;;;;;;4986576;28;20175;-93
2023/09/18 05:18:44;;;;;;;1.07;1.00;;;17.60;97.30;;;;;;4993657;28;20422;-93
2023/09/18 05:21:10;;;;;;;6.53;1.80;;;17.60;97.30;;;;;;4990674;28;20445;-93
2023/09/18 05:23:39;;;;;;;4.47;2.40;;;17.60;97.30;;;;;;4991153;28;20277;-94
2023/09/18 05:26:12;;;;;;;2.33;2.13;;;17.60;97.30;;;;;;4984766;28;20432;-94
2023/09/18 05:28:40;;;;;;;4.40;2.20;;;17.60;97.30;;;;;;4990964;28;20417;-94
2023/09/18 05:31:05;;;;;;;5.60;3.17;;;17.60;97.30;;;;;;4986598;28;20958;-94
2023/09/18 05:33:31;;;;;;;1.67;1.57;;;17.60;97.30;;;;;;4990518;28;20468;-93
2023/09/18 05:35:58;;;;;;;1.73;1.60;;;17.60;97.30;;;;;;4982681;28;20425;-93
2023/09/18 05:38:24;;;;;;;4.73;1.80;;;17.60;97.30;;;;;;4985757;28;20198;-93
2023/09/18 05:40:49;;;;;;;1.03;1.03;;;17.70;97.30;;;;;;4993123;28;20445;-93
2023/09/18 05:43:15;;;;;;;2.03;1.87;;;17.70;97.30;;;;;;4995857;28;20182;-94
2023/09/18 05:45:41;;;;;;;1.93;1.83;;;17.70;97.30;;;;;;4985025;28;20189;-93
2023/09/18 05:48:07;;;;;;;3.77;1.73;;;17.80;97.30;;;;;;4994270;28;20189;-95
2023/09/18 05:50:35;;;;;;;2.87;2.13;;;17.80;97.30;;;;;;4994918;28;20221;-94
2023/09/18 05:53:03;;;;;;;4.73;2.30;;;17.80;97.30;;;;;;4992167;28;20464;-94
2023/09/18 05:55:30;;;;;;;2.97;1.43;;;17.90;97.30;;;;;;4993519;28;20436;-95
2023/09/18 05:57:57;;;;;;;1.07;1.00;;;17.90;97.30;;;;;;4987998;28;20426;-92
2023/09/18 06:00:26;;;;;;;1.47;1.37;;;18.00;97.30;;;;;;4991070;28;20517;-92
2023/09/18 06:02:52;;;;;;;1.57;1.57;;;18.00;97.30;;;;;;4991175;28;20469;-94
2023/09/18 06:05:23;;;;;;;4.00;1.83;;;18.10;97.30;;;;;;4999218;28;20413;-93
2023/09/18 06:07:49;;;;;;;1.27;1.17;;;18.10;97.30;;;;;;4999841;28;20293;-94
2023/09/18 06:10:17;;;;;;;3.10;1.63;;;18.10;97.30;;;;;;4984482;28;20587;-92
2023/09/18 06:12:43;;;;;;;2.00;1.47;;;18.20;97.30;;;;;;4993062;28;20468;-93
2023/09/18 06:15:12;;;;;;;1.43;1.33;;;18.20;97.30;;;;;;4994668;28;20468;-93
2023/09/18 06:17:42;;;;;;;4.10;1.90;;;18.30;97.30;;;;;;4995469;28;20421;-94
2023/09/18 06:20:12;;;;;;;1.27;1.20;;;18.30;97.30;;;;;;4991565;28;20437;-94
2023/09/18 06:22:39;;;;;;;2.13;1.97;;;18.30;97.30;;;;;;4995296;28;20441;-94
2023/09/18 06:25:09;;;;;;;1.67;1.30;;;18.40;97.30;;;;;;4994096;28;20423;-94
2023/09/18 06:27:43;;;;;;;4.53;1.87;;;18.40;97.30;;;;;;4992262;28;20421;-94
2023/09/18 06:30:09;;;;;;;1.27;1.17;;;18.40;97.30;;;;;;4990854;28;20409;-94
2023/09/18 06:32:42;;;;;;;1.80;1.70;;;18.50;97.30;;;;;;4990450;28;20463;-93
2023/09/18 06:35:10;;;;;;;2.27;2.03;;;18.50;97.30;;;;;;4988826;28;20420;-91
2023/09/18 06:37:38;;;;;;;1.50;1.07;;;18.50;97.30;;;;;;4987804;28;20627;-93
2023/09/18 06:40:06;;;;;;;3.73;1.50;;;18.60;97.30;;;;;;4987478;28;20413;-92
2023/09/18 06:42:32;;;;;;;9.43;2.83;;;18.60;97.30;;;;;;4991081;28;20457;-90
2023/09/18 06:44:58;;;;;;;2.50;1.87;;;18.70;97.30;;;;;;4992865;28;20425;-92
2023/09/18 06:47:24;;;;;;;1.67;1.60;;;18.80;97.30;;;;;;4988375;28;20422;-91
2023/09/18 06:49:51;;;;;;;2.10;1.60;;;18.90;97.30;;;;;;4990731;28;20508;-91
2023/09/18 06:52:18;;;;;;;1.37;1.20;;;18.90;97.30;;;;;;4990649;28;20208;-93
2023/09/18 06:54:44;;;;;;;1.43;1.43;;;19.00;97.30;;;;;;4988666;28;20495;-92
2023/09/18 06:57:10;;;;;;;1.57;1.50;;;19.10;97.30;;;;;;4988982;28;20492;-91
2023/09/18 06:59:35;;;;;;;2.17;1.80;;;19.20;97.30;;;;;;4987220;28;20652;-92
2023/09/18 07:02:02;;;;;;;3.33;2.47;;;19.40;97.30;;;;;;4989121;28;20268;-91
2023/09/18 07:04:30;;;;;;;5.80;3.20;;;19.50;97.30;;;;;;4988872;28;20551;-91
2023/09/18 07:06:56;;;;;;;1.70;1.53;;;19.60;97.30;;;;;;4991434;28;20417;-90
2023/09/18 07:09:23;;;;;;;1.37;1.20;;;19.80;97.30;;;;;;4991028;28;20475;-91
2023/09/18 07:11:49;;;;;;;1.33;1.23;;;19.90;97.30;;;;;;4989088;28;20525;-92
2023/09/18 07:14:17;;;;;;;1.93;1.83;;;20.00;97.30;;;;;;4988823;28;20433;-91
2023/09/18 07:16:43;;;;;;;1.90;1.70;;;20.20;97.30;;;;;;4990381;28;20472;-92
2023/09/18 07:19:11;;;;;;;5.30;2.23;;;20.30;97.30;;;;;;4987526;28;20413;-89
2023/09/18 07:21:40;;;;;;;1.60;1.50;;;20.40;97.30;;;;;;4990085;28;20456;-90
2023/09/18 07:24:06;;;;;;;1.57;1.47;;;20.50;97.30;;;;;;4987630;28;20503;-90
2023/09/18 07:26:31;;;;;;;2.23;1.83;;;20.60;97.30;;;;;;4988260;28;20559;-90
2023/09/18 07:28:59;;;;;;;1.40;1.30;;;20.70;97.30;;;;;;4989564;28;20189;-89
2023/09/18 07:31:24;;;;;;;1.50;1.40;;;20.80;97.30;;;;;;4986486;28;20579;-91
2023/09/18 07:33:51;;;;;;;3.00;1.53;;;20.90;97.30;;;;;;4987398;28;20425;-90
2023/09/18 07:36:17;;;;;;;1.70;1.60;;;20.90;97.30;;;;;;4988018;28;20586;-91
2023/09/18 07:38:43;;;;;;;2.63;2.17;;;20.90;97.30;;;;;;4990606;28;20433;-90
2023/09/18 07:41:09;;;;;;;3.90;2.20;;;21.00;97.30;;;;;;4991963;28;20229;-90
2023/09/18 07:43:34;;;;;;;1.20;1.10;;;21.10;97.30;;;;;;4989815;28;20206;-89
2023/09/18 07:46:01;;;;;;;2.07;1.70;;;21.20;97.30;;;;;;4990892;28;20651;-89
2023/09/18 07:48:27;;;;;;;1.27;1.17;;;21.20;97.30;;;;;;4990862;28;20180;-89
2023/09/18 07:50:54;;;;;;;1.60;1.10;;;21.40;97.30;;;;;;4990355;28;20441;-90
2023/09/18 07:53:20;;;;;;;1.57;1.30;;;21.50;97.30;;;;;;4987635;28;20534;-89
2023/09/18 07:55:45;;;;;;;3.97;2.03;;;21.60;97.30;;;;;;4992132;28;20432;-91
2023/09/18 07:58:11;;;;;;;1.83;1.73;;;21.60;97.30;;;;;;4994406;28;20178;-90
2023/09/18 08:00:39;;;;;;;1.50;1.33;;;21.70;97.30;;;;;;4990656;28;20182;-90
2023/09/18 08:03:08;;;;;;;1.33;1.23;;;21.80;97.30;;;;;;4991560;28;20468;-91
2023/09/18 08:05:34;;;;;;;1.77;1.67;;;21.80;97.30;;;;;;4991174;28;20472;-91
2023/09/18 08:08:00;;;;;;;4.47;1.97;;;21.80;97.30;;;;;;4990913;28;20424;-90
2023/09/18 08:10:26;;;;;;;5.07;1.80;;;21.90;97.30;;;;;;4993066;28;20187;-91
2023/09/18 08:12:52;;;;;;;1.83;1.73;;;21.90;97.30;;;;;;4996644;28;20457;-90
2023/09/18 08:15:20;;;;;;;3.40;2.00;;;21.90;97.30;;;;;;4996958;28;20178;-90
2023/09/18 08:17:46;;;;;;;1.33;1.30;;;22.00;97.30;;;;;;4996051;28;20432;-89
2023/09/18 08:20:13;;;;;;;3.47;1.73;;;22.00;97.30;;;;;;4995843;28;20443;-90
2023/09/18 08:22:40;;;;;;;2.10;1.43;;;22.00;97.30;;;;;;4995947;28;20449;-90
2023/09/18 08:25:10;;;;;;;1.10;1.00;;;22.10;97.30;;;;;;4992126;28;20417;-89
2023/09/18 08:27:41;;;;;;;3.80;1.87;;;22.10;97.30;;;;;;4993667;28;20425;-90
2023/09/18 08:30:09;;;;;;;2.83;1.43;;;22.10;97.30;;;;;;4994348;28;20456;-90
2023/09/18 08:32:35;;;;;;;1.70;1.60;;;22.20;97.30;;;;;;4992344;28;20469;-91
2023/09/18 08:35:01;;;;;;;2.50;2.10;;;22.20;97.30;;;;;;4990562;28;20422;-89
2023/09/18 08:37:30;;;;;;;1.63;1.07;;;22.20;97.30;;;;;;4993044;28;20421;-90
2023/09/18 08:39:56;;;;;;;10.80;1.87;;;22.30;97.30;;;;;;4993887;28;20508;-89
2023/09/18 08:42:23;;;;;;;3.27;2.40;;;22.30;97.30;;;;;;4993353;28;20484;-91
2023/09/18 08:44:51;;;;;;;2.80;1.67;;;22.30;97.30;;;;;;4995033;28;20394;-88
2023/09/18 08:47:20;;;;;;;1.93;1.40;;;22.30;97.00;;;;;;4992210;28;20921;-90
2023/09/18 08:49:50;;;;;;;1.60;1.50;;;22.30;97.30;;;;;;4996035;28;20826;-89
2023/09/18 08:52:18;;;;;;;3.13;1.60;;;22.30;96.80;;;;;;4990881;28;20464;-91
2023/09/18 08:54:52;;;;;;;1.53;1.27;;;22.30;97.20;;;;;;4991307;28;20413;-90
2023/09/18 08:57:21;;;;;;;1.57;1.30;;;22.40;97.10;;;;;;4994361;28;20425;-87
2023/09/18 08:59:48;;;;;;;1.50;1.30;;;22.40;96.60;;;;;;4997285;28;20923;-91
2023/09/18 09:02:14;;;;;;;2.63;1.63;;;22.50;97.30;;;;;;4991505;28;20556;-91
2023/09/18 09:04:39;;;;;;;1.80;1.70;;;22.50;97.10;;;;;;4992375;28;20505;-89
2023/09/18 09:07:06;;;;;;;2.67;2.17;;;22.60;96.70;;;;;;4992611;28;20280;-89
2023/09/18 09:09:31;;;;;;;3.33;1.50;;;22.80;96.20;;;;;;4996058;28;20471;-89
2023/09/18 09:11:59;;;;;;;1.77;1.57;;;22.90;96.50;;;;;;4991038;28;20460;-89
2023/09/18 09:14:42;;;;;;;2.10;1.87;;;23.00;95.50;;;;;;4994149;28;20178;-89
2023/09/18 09:17:07;;;;;;;3.37;1.83;;;23.10;95.00;;;;;;4995709;28;20423;-90
2023/09/18 09:19:38;;;;;;;1.20;1.10;;;23.10;95.30;;;;;;4991863;28;20417;-90
2023/09/18 09:22:09;;;;;;;1.87;1.43;;;23.20;95.80;;;;;;5000756;28;20197;-89
2023/09/18 09:24:39;;;;;;;1.40;1.10;;;23.20;95.00;;;;;;4995810;28;20437;-90
2023/09/18 09:27:05;;;;;;;1.03;1.00;;;23.20;95.00;;;;;;4990192;28;20416;-90
2023/09/18 09:29:31;;;;;;;2.00;1.50;;;23.20;95.60;;;;;;4992419;28;20426;-89
2023/09/18 09:32:18;;;;;;;1.97;1.63;;;23.20;94.50;;;;;;4989305;28;20730;-90
2023/09/18 09:34:44;;;;;;;1.63;1.30;;;23.20;95.00;;;;;;4991212;28;20468;-89
2023/09/18 09:37:10;;;;;;;0.90;0.80;;;23.10;95.20;;;;;;4991467;28;20429;-90
2023/09/18 09:39:49;;;;;;;1.30;1.20;;;23.10;94.00;;;;;;4992194;28;20861;-91
2023/09/18 09:42:27;;;;;;;1.03;0.93;;;23.10;94.50;;;;;;4997721;28;20449;-90
2023/09/18 09:45:03;;;;;;;1.70;1.57;;;23.10;95.10;;;;;;4987471;28;20429;-91
2023/09/18 09:47:33;;;;;;;1.57;1.50;;;23.10;95.30;;;;;;4985077;28;20436;-91
2023/09/18 09:50:05;;;;;;;2.30;1.43;;;23.20;94.90;;;;;;4991924;28;20551;-91
2023/09/18 09:52:33;;;;;;;6.00;1.63;;;23.20;95.50;;;;;;4989831;28;20552;-88
2023/09/18 09:54:59;;;;;;;5.40;2.00;;;23.30;95.20;;;;;;4990060;28;20456;-91
2023/09/18 09:57:24;;;;;;;1.70;1.60;;;23.30;95.00;;;;;;4992795;28;20417;-91
2023/09/18 09:59:50;;;;;;;1.13;1.00;;;23.40;94.70;;;;;;4992655;28;20173;-90
2023/09/18 10:02:19;;;;;;;1.17;1.07;;;23.40;94.90;;;;;;4980476;28;20585;-91
2023/09/18 10:04:49;;;;;;;1.93;1.50;;;23.50;95.20;;;;;;4981473;28;20254;-90
2023/09/18 10:07:18;;;;;;;1.90;1.50;;;23.60;95.40;;;;;;4987255;28;20480;-91
2023/09/18 10:09:45;;;;;;;9.10;1.63;;;23.60;95.50;;;;;;4987492;28;20499;-90
2023/09/18 10:12:24;;;;;;;1.27;1.17;;;23.70;96.20;;;;;;4992198;28;21053;-90
2023/09/18 10:14:55;;;;;;;1.30;1.00;;;23.70;95.90;;;;;;4991915;28;20468;-90
2023/09/18 10:17:21;;;;;;;0.90;0.90;;;23.70;96.60;;;;;;4982236;28;20415;-91
2023/09/18 10:20:10;;;;;;;2.70;1.53;;;23.80;96.60;;;;;;4991420;28;20425;-91
2023/09/18 10:22:42;;;;;;;2.00;1.90;;;23.70;96.20;;;;;;4984166;28;20221;-91
2023/09/18 10:25:18;;;;;;;1.80;1.70;;;23.70;96.30;;;;;;4992279;28;20429;-91
2023/09/18 10:27:49;;;;;;;2.27;2.13;;;23.80;96.50;;;;;;4991891;28;20520;-91
2023/09/18 10:30:18;;;;;;;7.17;2.03;;;23.80;97.20;;;;;;4992465;28;20790;-91
2023/09/18 10:32:52;;;;;;;1.90;1.17;;;23.80;96.60;;;;;;4991974;28;20469;-91
2023/09/18 10:35:19;;;;;;;1.30;1.20;;;23.80;96.30;;;;;;4992095;28;20435;-90
2023/09/18 10:37:51;;;;;;;1.10;1.00;;;23.80;96.50;;;;;;4991477;28;20846;-90
2023/09/18 10:40:20;;;;;;;2.50;2.30;;;23.80;97.20;;;;;;4992163;28;20448;-91
2023/09/18 10:42:47;;;;;;;1.53;1.40;;;23.90;96.60;;;;;;4993364;28;20479;-88
2023/09/18 10:45:15;;;;;;;1.10;1.10;;;24.00;95.90;;;;;;4986629;28;20462;-91
2023/09/18 10:47:47;;;;;;;1.43;1.20;;;24.10;96.30;;;;;;4993989;28;20949;-92
2023/09/18 10:50:28;;;;;;;1.37;1.10;;;24.20;94.10;;;;;;4995741;28;20432;-91
2023/09/18 10:52:56;;;;;;;1.70;1.37;;;24.30;95.00;;;;;;4989008;28;20495;-90
2023/09/18 10:55:23;;;;;;;2.17;1.47;;;24.60;93.90;;;;;;4984947;28;20504;-91
2023/09/18 10:57:54;;;;;;;1.10;1.10;;;24.80;93.70;;;;;;4986551;28;20503;-91
2023/09/18 11:00:25;;;;;;;1.20;1.10;;;24.90;93.20;;;;;;4992576;28;20816;-91
2023/09/18 11:03:08;;;;;;;2.90;1.67;;;25.00;93.00;;;;;;4990805;28;20473;-91
2023/09/18 11:05:34;;;;;;;1.90;1.73;;;25.00;91.50;;;;;;4987094;28;20413;-90
2023/09/18 11:08:29;;;;;;;3.63;1.40;;;25.10;91.70;;;;;;4989580;28;20452;-91
2023/09/18 11:11:09;;;;;;;1.87;1.70;;;25.10;92.00;;;;;;4983717;28;20954;-91
2023/09/18 11:13:47;;;;;;;1.53;1.43;;;25.10;92.30;;;;;;4979188;28;20426;-90
2023/09/18 11:16:22;;;;;;;1.10;1.00;;;25.10;92.80;;;;;;4980202;28;20421;-90
2023/09/18 11:18:52;;;;;;;1.40;1.30;;;25.10;92.60;;;;;;4986014;28;20420;-90
2023/09/18 11:21:18;;;;;;;3.03;1.73;;;25.00;91.90;;;;;;4994274;28;20433;-91
2023/09/18 11:23:44;;;;;;;2.30;1.70;;;25.00;91.40;;;;;;4981767;28;20488;-90
2023/09/18 11:26:10;;;;;;;2.80;2.40;;;24.90;91.90;;;;;;4992786;28;20919;-92
2023/09/18 11:28:42;;;;;;;1.80;1.50;;;24.90;92.20;;;;;;4994140;28;20185;-90
2023/09/18 11:31:11;;;;;;;2.37;1.83;;;24.90;93.10;;;;;;4999151;28;20440;-89
2023/09/18 11:33:44;;;;;;;1.53;1.43;;;24.90;92.10;;;;;;4996133;28;20421;-90
2023/09/18 11:36:21;;;;;;;9.50;1.60;;;25.00;92.80;;;;;;4995530;28;20424;-91
2023/09/18 11:38:59;;;;;;;1.37;1.30;;;25.00;93.50;;;;;;5004742;28;20416;-92
2023/09/18 11:41:30;;;;;;;1.50;1.40;;;25.00;92.80;;;;;;5000273;28;20441;-91
2023/09/18 11:44:13;;;;;;;1.67;1.37;;;25.10;92.30;;;;;;5005286;28;20443;-89
2023/09/18 11:46:40;;;;;;;1.17;1.17;;;25.10;93.00;;;;;;4994261;28;20479;-91
2023/09/18 11:49:09;;;;;;;5.87;1.33;;;25.20;92.80;;;;;;4994388;28;20798;-91
2023/09/18 11:51:38;;;;;;;3.57;1.87;;;25.20;92.70;;;;;;4988992;28;20552;-90
2023/09/18 11:54:06;;;;;;;1.00;0.90;;;25.30;92.70;;;;;;4992568;28;20466;-87
2023/09/18 11:56:33;;;;;;;1.20;1.10;;;25.30;91.60;;;;;;4990151;28;20491;-91
2023/09/18 11:59:00;;;;;;;6.10;2.10;;;25.20;91.00;;;;;;4993967;28;20421;-89
2023/09/18 12:01:28;;;;;;;1.67;1.30;;;25.20;91.50;;;;;;4993478;28;20457;-91
2023/09/18 12:03:55;;;;;;;2.20;1.40;;;25.20;91.40;;;;;;4993244;28;20475;-91
2023/09/18 12:06:21;;;;;;;1.67;1.53;;;25.10;90.60;;;;;;4993955;28;20606;-91
2023/09/18 12:08:50;;;;;;;1.10;1.00;;;25.00;91.00;;;;;;4993590;28;21013;-91
2023/09/18 12:11:19;;;;;;;0.80;0.80;;;25.00;91.00;;;;;;4994688;28;20930;-91
2023/09/18 12:13:51;;;;;;;1.93;1.40;;;24.90;92.40;;;;;;4994505;28;20417;-91
2023/09/18 12:16:18;;;;;;;1.70;1.20;;;24.80;93.30;;;;;;4993306;28;20420;-91
2023/09/18 12:18:48;;;;;;;1.03;0.93;;;24.70;94.30;;;;;;4993778;28;20419;-91
2023/09/18 12:21:15;;;;;;;1.80;1.23;;;24.70;95.30;;;;;;4993105;28;20444;-90
2023/09/18 12:23:48;;;;;;;1.70;1.63;;;24.60;96.30;;;;;;4993170;28;20467;-92
2023/09/18 12:26:15;;;;;;;1.80;1.80;;;24.50;96.00;;;;;;4992927;28;20428;-91
2023/09/18 12:28:44;;;;;;;1.87;1.40;;;24.50;96.00;;;;;;4993222;28;20413;-91
2023/09/18 12:31:14;;;;;;;4.43;1.87;;;24.40;97.30;;;;;;4990271;28;20487;-90
2023/09/18 12:33:41;;;;;;;2.50;1.63;;;24.40;96.70;;;;;;4986563;28;20891;-91
2023/09/18 12:36:10;;;;;;;3.33;1.60;;;24.30;96.50;;;;;;4987087;28;20942;-92
2023/09/18 12:38:37;;;;;;;1.43;1.33;;;24.30;96.50;;;;;;4988327;28;20422;-91
2023/09/18 12:41:08;;;;;;;2.03;1.23;;;24.30;96.90;;;;;;4993986;28;20440;-91
2023/09/18 12:43:39;;;;;;;1.10;1.00;;;24.20;96.90;;;;;;4990481;28;20429;-87
2023/09/18 12:46:06;;;;;;;1.00;0.90;;;24.20;96.90;;;;;;4995985;28;20463;-88
2023/09/18 12:48:45;;;;;;;1.23;1.20;;;24.20;97.30;;;;;;4995105;28;20410;-90
2023/09/18 12:51:10;;;;;;;2.20;1.60;;;24.20;97.30;;;;;;4992496;28;20515;-89
2023/09/18 12:53:45;;;;;;;3.00;1.60;;;24.10;97.30;;;;;;4988735;28;20509;-91
2023/09/18 12:56:12;;;;;;;12.33;1.70;;;24.10;97.30;;;;;;4990233;28;20213;-91
2023/09/18 12:58:39;;;;;;;1.70;1.60;;;24.10;97.30;;;;;;4993877;28;20826;-91
2023/09/18 13:01:11;;;;;;;2.03;1.80;;;24.10;97.30;;;;;;4988183;28;20472;-94
2023/09/18 13:03:49;;;;;;;3.20;2.00;;;24.10;97.30;;;;;;4993165;28;20432;-93
2023/09/18 13:06:20;;;;;;;1.53;1.00;;;24.00;97.30;;;;;;4995307;28;20428;-93
2023/09/18 13:08:46;;;;;;;2.20;1.30;;;24.00;97.30;;;;;;4996338;28;20456;-92
2023/09/18 13:11:15;;;;;;;1.30;1.17;;;24.00;97.30;;;;;;4990262;28;21017;-92
2023/09/18 13:13:41;;;;;;;2.10;1.47;;;24.00;97.30;;;;;;4995496;28;20460;-92
2023/09/18 13:16:10;;;;;;;1.60;1.40;;;23.90;97.30;;;;;;4992402;28;20426;-92
2023/09/18 13:18:57;;;;;;;2.03;1.83;;;23.90;97.30;;;;;;4994473;28;20225;-92
2023/09/18 13:21:23;;;;;;;1.47;1.40;;;23.90;97.30;;;;;;4992831;28;20436;-91
2023/09/18 13:23:51;;;;;;;9.63;1.73;;;23.80;97.30;;;;;;4996574;28;20482;-90
2023/09/18 13:26:16;;;;;;;0.83;0.80;;;23.80;97.30;;;;;;4998776;28;20182;-91
2023/09/18 13:28:42;;;;;;;3.90;1.63;;;23.80;97.30;;;;;;4997071;28;20413;-91
2023/09/18 13:31:10;;;;;;;5.23;1.90;;;23.70;97.30;;;;;;5011920;28;20218;-93
2023/09/18 13:33:40;;;;;;;1.00;1.00;;;23.70;97.30;;;;;;5018873;28;20439;-91
2023/09/18 13:36:06;;;;;;;1.67;1.23;;;23.70;97.30;;;;;;5019095;28;20432;-94
2023/09/18 13:38:31;;;;;;;1.60;1.50;;;23.70;97.30;;;;;;5016350;28;20426;-94
2023/09/18 13:40:59;;;;;;;1.80;1.73;;;23.60;97.30;;;;;;5018215;28;20532;-94
2023/09/18 13:43:34;;;;;;;2.00;1.43;;;23.60;97.30;;;;;;5018839;28;20237;-92
2023/09/18 13:46:00;;;;;;;1.00;0.80;;;23.60;97.20;;;;;;5014764;28;20428;-94
2023/09/18 13:48:26;;;;;;;1.00;0.90;;;23.50;97.30;;;;;;5012496;28;20488;-94
2023/09/18 13:50:52;;;;;;;4.90;1.70;;;23.50;97.30;;;;;;5013081;28;20209;-93
2023/09/18 13:53:21;;;;;;;2.60;1.20;;;23.50;97.30;;;;;;4990843;28;20241;-92
2023/09/18 13:55:47;;;;;;;1.00;0.93;;;23.50;97.30;;;;;;4990314;28;20482;-92
2023/09/18 13:58:12;;;;;;;1.37;1.30;;;23.50;97.30;;;;;;4995639;28;20449;-92
2023/09/18 14:00:38;;;;;;;1.67;1.17;;;23.50;97.20;;;;;;4989851;28;20272;-92
2023/09/18 14:03:04;;;;;;;1.30;1.07;;;23.50;97.30;;;;;;5010254;23;20261;-60
2023/09/18 14:05:30;;;;;;;1.87;1.43;;;23.50;97.20;;;;;;4970335;28;20190;-61
2023/09/18 14:07:59;;;;;;;1.20;0.97;;;23.50;97.10;;;;;;4969829;28;20182;-62
2023/09/18 14:10:25;;;;;;;1.10;1.00;;;23.50;96.90;;;;;;4989915;28;20974;-61
2023/09/18 14:12:51;;;;;;;1.70;1.60;;;23.40;96.60;;;;;;4961486;28;20562;-61
2023/09/18 14:15:17;;;;;;;1.57;1.13;;;23.40;96.60;;;;;;4964895;28;20473;-61
2023/09/18 14:17:42;;;;;;;1.10;1.00;;;23.40;96.80;;;;;;4977782;28;20314;-62
2023/09/18 14:20:09;;;;;;;1.73;1.10;;;23.40;97.00;;;;;;4964003;28;20201;-61
2023/09/18 14:22:39;;;;;;;1.80;1.43;;;23.40;97.30;;;;;;4969605;28;20189;-61
2023/09/18 14:25:05;;;;;;;1.47;1.43;;;23.30;97.30;;;;;;4966517;28;20492;-61
2023/09/18 14:27:35;;;;;;;10.90;1.17;;;23.20;97.30;;;;;;4965156;28;20430;-60
2023/09/18 14:30:05;;;;;;;1.43;1.33;;;23.00;97.30;;;;;;4966737;28;20456;-65
2023/09/18 14:32:31;;;;;;;1.20;1.10;;;22.90;97.30;;;;;;4967857;28;20500;-61
2023/09/18 14:35:01;;;;;;;1.77;1.43;;;22.80;97.30;;;;;;4965666;28;20418;-62
2023/09/18 14:37:26;;;;;;;1.67;1.20;;;22.70;97.30;;;;;;4966665;28;20554;-60
2023/09/18 14:39:52;;;;;;;5.70;1.20;;;22.60;97.30;;;;;;4966159;28;20502;-60
2023/09/18 14:42:17;;;;;;;4.67;1.60;;;22.50;97.30;;;;;;4966360;28;20225;-60
2023/09/18 14:44:44;;;;;;;1.40;1.30;;;22.50;97.30;;;;;;4964969;28;20190;-61
2023/09/18 14:47:11;;;;;;;4.20;1.70;;;22.40;97.30;;;;;;4981454;28;20640;-61
2023/09/18 14:49:38;;;;;;;1.67;1.67;;;22.40;97.30;;;;;;4967700;28;20434;-61
2023/09/18 14:52:05;;;;;;;1.67;1.63;;;22.30;97.30;;;;;;4964909;28;20617;-60
2023/09/18 14:54:30;;;;;;;1.77;1.30;;;22.30;97.30;;;;;;4970263;28;20434;-60
2023/09/18 14:56:56;;;;;;;1.00;0.90;;;22.30;97.30;;;;;;4956913;28;20422;-61
2023/09/18 14:59:26;;;;;;;21.83;1.63;;;22.20;97.30;;;;;;4961017;28;20206;-61
2023/09/18 15:01:52;;;;;;;1.27;1.20;;;22.20;97.30;;;;;;4968402;28;20293;-60
2023/09/18 15:04:17;;;;;;;2.00;1.63;;;22.10;97.30;;;;;;4967853;28;20556;-60
2023/09/18 15:06:43;;;;;;;1.07;0.90;;;22.00;97.30;;;;;;4982572;28;20221;-60
2023/09/18 15:09:08;;;;;;;5.17;2.23;;;22.00;97.30;;;;;;4962491;28;21078;-60
2023/09/18 15:11:37;;;;;;;1.03;1.00;;;22.00;97.30;;;;;;4980693;28;20264;-60
2023/09/18 15:14:03;;;;;;;1.40;1.30;;;22.00;97.30;;;;;;4968048;28;20552;-60
2023/09/18 15:16:30;;;;;;;1.00;0.93;;;22.10;97.30;;;;;;4967051;28;20414;-60
2023/09/18 15:18:55;;;;;;;1.67;1.33;;;22.10;97.30;;;;;;4981141;28;20175;-61
2023/09/18 15:21:21;;;;;;;1.23;1.13;;;22.10;97.30;;;;;;4964802;28;20516;-61
2023/09/18 15:23:48;;;;;;;1.17;1.10;;;22.10;97.30;;;;;;4984104;28;20414;-61
2023/09/18 15:26:14;;;;;;;2.40;1.23;;;22.20;97.30;;;;;;4963337;28;20203;-61
2023/09/18 15:28:40;;;;;;;1.47;1.20;;;22.20;97.30;;;;;;4966127;28;20865;-61
2023/09/18 15:31:06;;;;;;;1.07;0.97;;;22.20;97.30;;;;;;4961173;28;20233;-60
2023/09/18 15:33:32;;;;;;;3.23;2.03;;;22.20;97.30;;;;;;4965128;28;20505;-61
2023/09/18 15:35:57;;;;;;;2.77;1.37;;;22.20;97.30;;;;;;4968087;28;20233;-61
2023/09/18 15:38:24;;;;;;;2.50;1.80;;;22.20;97.30;;;;;;4963672;28;20411;-60
2023/09/18 15:40:50;;;;;;;2.60;1.73;;;22.20;97.30;;;;;;4970562;28;20202;-60
2023/09/18 15:43:17;;;;;;;8.13;1.50;;;22.20;97.30;;;;;;4970465;28;20453;-61
2023/09/18 15:45:43;;;;;;;2.97;1.13;;;22.20;97.30;;;;;;4970900;28;20568;-61
2023/09/18 15:48:08;;;;;;;1.20;1.10;;;22.20;97.30;;;;;;4970521;28;20426;-61
2023/09/18 15:50:34;;;;;;;1.03;0.97;;;22.20;97.30;;;;;;4967299;28;20260;-60
2023/09/18 15:53:00;;;;;;;2.70;1.67;;;22.20;97.30;;;;;;4969935;28;20217;-61
2023/09/18 15:55:26;;;;;;;0.90;0.90;;;22.20;97.30;;;;;;4970495;28;20174;-61
2023/09/18 15:57:52;;;;;;;1.30;1.20;;;22.20;97.30;;;;;;4970674;28;20430;-60
2023/09/18 16:00:19;;;;;;;1.23;1.20;;;22.20;97.30;;;;;;4970059;28;20638;-61
2023/09/18 16:02:48;;;;;;;1.47;1.30;;;22.20;97.30;;;;;;4970203;28;20223;-60
2023/09/18 16:05:14;;;;;;;1.77;1.73;;;22.10;97.30;;;;;;4984895;28;20429;-60
2023/09/18 16:07:41;;;;;;;1.00;0.90;;;22.10;97.30;;;;;;4969360;28;20499;-60
2023/09/18 16:10:08;;;;;;;1.17;1.10;;;22.10;97.30;;;;;;4966926;28;20273;-60
2023/09/18 16:12:34;;;;;;;1.40;1.30;;;22.00;97.30;;;;;;4957407;28;20478;-60
2023/09/18 16:15:02;;;;;;;1.23;1.03;;;22.00;97.30;;;;;;4966531;28;20433;-60
2023/09/18 16:17:27;;;;;;;1.23;1.20;;;21.90;97.30;;;;;;4966375;28;20440;-61
2023/09/18 16:19:55;;;;;;;5.23;1.43;;;21.90;97.30;;;;;;4973604;28;20934;-60
2023/09/18 16:22:20;;;;;;;1.37;1.00;;;21.80;97.30;;;;;;4965306;28;20202;-60
2023/09/18 16:24:46;;;;;;;2.40;1.40;;;21.80;97.30;;;;;;4965557;28;20425;-60
2023/09/18 16:27:13;;;;;;;0.90;0.80;;;21.70;97.30;;;;;;4963371;28;20222;-60
2023/09/18 16:29:40;;;;;;;0.90;0.87;;;21.70;97.30;;;;;;4959986;28;20182;-60
2023/09/18 16:32:08;;;;;;;0.70;0.70;;;21.70;97.30;;;;;;4956431;28;20506;-61
2023/09/18 16:34:34;;;;;;;1.17;1.07;;;21.70;97.30;;;;;;4981916;28;20895;-61
2023/09/18 16:37:00;;;;;;;1.83;1.10;;;21.60;97.30;;;;;;4972620;28;20461;-61
2023/09/18 16:39:26;;;;;;;1.17;1.07;;;21.60;97.30;;;;;;4967069;28;20450;-61
2023/09/18 16:41:53;;;;;;;1.73;1.10;;;21.60;97.30;;;;;;4954487;28;20438;-60
2023/09/18 16:44:18;;;;;;;1.53;1.37;;;21.60;97.30;;;;;;4960965;28;20438;-61
2023/09/18 16:46:44;;;;;;;1.20;1.10;;;21.60;97.30;;;;;;4976994;28;20434;-60
2023/09/18 16:49:11;;;;;;;0.90;0.90;;;21.60;97.30;;;;;;4970978;28;20198;-61
2023/09/18 16:51:37;;;;;;;2.13;1.40;;;21.60;97.30;;;;;;4966346;28;20210;-60